KRTN/RTN METAR and TAF weather

Enter ICAO airport designator
Station Type Date Time Source
KRTN METAR 2021/03/01 02:53 UTC NOAA

KRTN 010253Z AUTO 35008KT 10SM CLR M04/M11 A3014 RMK AO2 SLP236 T10441111 51024


Station Type Date Time Source
KRTN Decoded METAR 2021/03/01 02:53 UTC NOAA

Raton, Raton Municipal \ Crews Field Airport, NM, United States (KRTN) 36-44-31N 104-39-28W 1939M
Feb 28, 2021 - 09:53 PM EST / 2021.03.01 0253 UTC
Wind: from the N (350 degrees) at 9 MPH (8 KT):0
Visibility: 10 mile(s):0
Sky conditions: clear
Temperature: 24.1 F (-4.4 C)
Windchill: 14 F (-10 C):1
Dew Point: 12.0 F (-11.1 C)
Relative Humidity: 59%
Pressure (altimeter): 30.14 in. Hg (1020 hPa)
Pressure tendency: 0.07 inches (2.4 hPa) higher than three hours ago
ob: KRTN 010253Z AUTO 35008KT 10SM CLR M04/M11 A3014 RMK AO2 SLP236 T10441111 51024
cycle: 3

Station Type Date Time Source
KRTN TAF UTC NOAA

Error!

Example: see airport list